Time;durP1;ratioP1;P1;durP2;ratioP2;P2;SDS_P1;SDS_P2;PMS_P1;PMS_P2;Temp;Humidity;BMP_temperature;BMP_pressure;BME280_temperature;BME280_humidity;BME280_pressure;Samples;Min_cycle;Max_cycle;Signal;HPM_P1;HPM_P2
2022/03/23 00:02:11;;;;;;;23.92;15.75;;;;;;;5.06;60.37;100906.47;4953100;29;20119;-65
2022/03/23 00:04:36;;;;;;;21.38;12.80;;;;;;;5.02;59.99;100915.22;4953729;29;20035;-66
2022/03/23 00:07:01;;;;;;;19.17;13.23;;;;;;;4.98;59.92;100916.13;4953659;29;20031;-66
2022/03/23 00:09:27;;;;;;;23.45;15.05;;;;;;;4.90;60.18;100918.81;4953435;29;20518;-65
2022/03/23 00:11:53;;;;;;;22.48;14.70;;;;;;;4.84;60.54;100911.88;4952863;29;20039;-67
2022/03/23 00:14:18;;;;;;;21.80;14.10;;;;;;;4.83;60.62;100914.50;4953444;29;20450;-67
2022/03/23 00:16:44;;;;;;;20.83;14.52;;;;;;;4.85;60.71;100910.13;4953565;29;20035;-67
2022/03/23 00:19:09;;;;;;;20.13;13.63;;;;;;;4.82;60.26;100911.00;4953208;29;20102;-66
2022/03/23 00:21:36;;;;;;;24.60;13.98;;;;;;;4.84;60.20;100913.63;4952791;29;20043;-66
2022/03/23 00:24:01;;;;;;;19.27;14.48;;;;;;;4.79;60.16;100903.19;4953530;29;20070;-65
2022/03/23 00:26:26;;;;;;;18.45;13.75;;;;;;;4.79;61.11;100911.03;4953032;29;20118;-67
2022/03/23 00:28:52;;;;;;;21.48;14.10;;;;;;;4.72;61.00;100907.59;4935333;29;20455;-65
2022/03/23 00:31:20;;;;;;;23.75;14.32;;;;;;;4.68;61.46;100908.50;4935549;29;20550;-66
2022/03/23 00:33:46;;;;;;;23.75;14.75;;;;;;;4.62;61.35;100908.53;4949459;28;20031;-68
2022/03/23 00:36:11;;;;;;;19.75;14.30;;;;;;;4.66;61.34;100906.78;4952822;28;20042;-65
2022/03/23 00:38:38;;;;;;;23.08;15.23;;;;;;;4.67;61.25;100911.97;4943411;28;20500;-66
2022/03/23 00:41:03;;;;;;;22.02;16.33;;;;;;;4.70;61.10;100909.38;4915963;29;20126;-65
2022/03/23 00:43:29;;;;;;;20.73;15.35;;;;;;;4.73;61.00;100905.88;4933700;29;20035;-65
2022/03/23 00:45:54;;;;;;;22.85;14.82;;;;;;;4.78;60.44;100909.31;4933675;29;20039;-68
2022/03/23 00:48:20;;;;;;;23.42;15.93;;;;;;;4.78;61.43;100916.28;4933900;29;20031;-65
2022/03/23 00:50:45;;;;;;;24.00;14.77;;;;;;;4.73;62.07;100911.09;4933846;29;20052;-65
2022/03/23 00:53:11;;;;;;;24.38;15.10;;;;;;;4.70;61.94;100917.22;4933430;29;20036;-65
2022/03/23 00:55:36;;;;;;;22.92;17.17;;;;;;;4.68;61.61;100913.75;4933463;29;20043;-65
2022/03/23 00:58:02;;;;;;;23.25;15.40;;;;;;;4.67;61.15;100916.34;4916594;29;20106;-66
2022/03/23 01:00:27;;;;;;;23.95;17.23;;;;;;;4.65;61.84;100908.53;4933277;29;20040;-67
2022/03/23 01:02:53;;;;;;;23.92;15.45;;;;;;;4.63;62.55;100904.22;4933412;29;20048;-65
2022/03/23 01:05:19;;;;;;;22.42;15.68;;;;;;;4.61;61.09;100911.19;4933537;29;20385;-66
2022/03/23 01:07:44;;;;;;;23.98;17.02;;;;;;;4.54;62.07;100902.50;4933322;29;20122;-66
2022/03/23 01:10:15;;;;;;;25.83;15.68;;;;;;;4.49;62.47;100907.75;4933004;29;20039;-66
2022/03/23 01:12:43;;;;;;;21.30;16.33;;;;;;;4.45;62.26;100903.41;4940062;28;20078;-66
2022/03/23 01:15:10;;;;;;;24.13;16.23;;;;;;;4.43;62.96;100906.91;4952417;28;20039;-67
2022/03/23 01:17:38;;;;;;;24.45;15.93;;;;;;;4.41;62.87;100908.69;4952173;28;20086;-66
2022/03/23 01:20:09;;;;;;;23.20;16.63;;;;;;;4.43;61.88;100905.19;4951979;28;20035;-66
2022/03/23 01:22:39;;;;;;;19.75;15.50;;;;;;;4.48;62.06;100899.97;4951525;28;20051;-67
2022/03/23 01:25:07;;;;;;;21.17;14.40;;;;;;;4.50;61.58;100904.28;4952131;28;20031;-66
2022/03/23 01:27:33;;;;;;;20.95;15.32;;;;;;;4.50;61.82;100900.78;4951972;28;20499;-66
2022/03/23 01:29:58;;;;;;;24.02;16.35;;;;;;;4.37;63.11;100894.78;4951743;28;20047;-66
2022/03/23 01:32:24;;;;;;;26.00;15.95;;;;;;;4.29;63.55;100893.97;4950039;28;20043;-65
2022/03/23 01:34:49;;;;;;;24.00;15.10;;;;;;;4.25;63.72;100890.50;4951503;28;20038;-66
2022/03/23 01:37:15;;;;;;;23.27;16.55;;;;;;;4.22;64.01;100897.47;4952372;29;20042;-67
2022/03/23 01:39:40;;;;;;;22.77;15.80;;;;;;;4.18;63.61;100888.78;4951698;29;20455;-67
2022/03/23 01:42:06;;;;;;;21.75;15.35;;;;;;;4.15;63.43;100896.63;4950104;28;20118;-67
2022/03/23 01:44:32;;;;;;;33.28;16.90;;;;;;;4.16;63.91;100890.56;4952016;29;20039;-65
2022/03/23 01:47:07;;;;;;;18.67;13.55;;;;;;;4.21;63.08;100888.78;4951931;29;20031;-66
2022/03/23 01:49:34;;;;;;;24.80;16.98;;;;;;;4.25;63.40;100885.28;4951526;29;20035;-66
2022/03/23 01:52:01;;;;;;;23.75;16.70;;;;;;;4.29;62.47;100888.75;4951473;29;20053;-66
2022/03/23 01:54:26;;;;;;;21.77;14.77;;;;;;;4.32;63.34;100887.84;4951907;28;20043;-67
2022/03/23 01:56:53;;;;;;;22.98;15.50;;;;;;;4.32;62.72;100891.34;4951872;28;20035;-66
2022/03/23 01:59:18;;;;;;;29.65;16.35;;;;;;;4.30;62.64;100886.09;4952146;28;20065;-66
2022/03/23 02:01:44;;;;;;;28.50;17.48;;;;;;;4.29;62.56;100891.34;4945332;28;20403;-65
2022/03/23 02:04:09;;;;;;;29.80;20.92;;;;;;;4.26;62.81;100887.03;4952098;28;20035;-66
2022/03/23 02:06:35;;;;;;;24.73;16.30;;;;;;;4.24;62.69;100890.53;4951752;28;20046;-66
2022/03/23 02:09:01;;;;;;;24.58;15.50;;;;;;;4.21;62.99;100882.69;4951359;28;20126;-66
2022/03/23 02:11:27;;;;;;;23.98;17.30;;;;;;;4.18;63.05;100886.19;4951020;28;20039;-66
2022/03/23 02:13:53;;;;;;;23.88;15.77;;;;;;;4.12;63.70;100882.75;4951610;28;20084;-66
2022/03/23 02:16:19;;;;;;;21.25;16.35;;;;;;;4.11;63.11;100888.81;4951814;28;20035;-66
2022/03/23 02:18:45;;;;;;;22.33;15.95;;;;;;;4.08;63.84;100889.72;4951754;28;20027;-65
2022/03/23 02:21:14;;;;;;;23.05;14.65;;;;;;;4.07;63.58;100888.00;4951288;28;20042;-66
2022/03/23 02:23:39;;;;;;;26.98;17.80;;;;;;;4.04;64.38;100885.41;4951193;28;20031;-66
2022/03/23 02:26:06;;;;;;;23.88;15.40;;;;;;;4.01;64.35;100878.47;4951317;28;20110;-66
2022/03/23 02:28:32;;;;;;;23.77;17.27;;;;;;;3.92;64.99;100883.72;4951312;28;20403;-66
2022/03/23 02:30:58;;;;;;;20.58;15.07;;;;;;;3.86;64.86;100881.13;4951337;28;20039;-66
2022/03/23 02:33:24;;;;;;;27.60;16.05;;;;;;;3.85;64.89;100882.00;4951250;28;20035;-66
2022/03/23 02:35:49;;;;;;;23.73;15.35;;;;;;;3.83;65.35;100888.97;4951510;28;20487;-66
2022/03/23 02:38:16;;;;;;;26.00;15.57;;;;;;;3.76;65.75;100882.88;4951527;28;20114;-66
2022/03/23 02:40:42;;;;;;;22.80;14.70;;;;;;;3.75;65.61;100880.31;4951390;28;20098;-65
2022/03/23 02:43:08;;;;;;;22.25;15.45;;;;;;;3.69;65.67;100881.16;4951351;28;20043;-66
2022/03/23 02:45:33;;;;;;;19.55;14.07;;;;;;;3.68;65.64;100881.19;4938227;28;20042;-66
2022/03/23 02:47:58;;;;;;;24.67;17.13;;;;;;;3.69;65.22;100882.91;4932081;29;20043;-65
2022/03/23 02:50:24;;;;;;;21.33;15.57;;;;;;;3.69;65.20;100882.91;4931615;29;20044;-65
2022/03/23 03:03:56;;;;;;;24.05;15.02;;;;;;;3.72;64.64;100885.53;4954804;28;20038;-66
2022/03/23 03:06:21;;;;;;;23.77;15.55;;;;;;;3.70;65.15;100882.94;4953166;28;20102;-65
2022/03/23 03:08:48;;;;;;;20.27;14.15;;;;;;;3.64;65.78;100883.81;4935386;29;20035;-65
2022/03/23 03:11:15;;;;;;;24.33;15.43;;;;;;;3.62;65.86;100879.50;4933590;29;20036;-64
2022/03/23 03:13:41;;;;;;;20.90;14.25;;;;;;;3.60;66.21;100887.31;4935393;29;20090;-64
2022/03/23 03:16:07;;;;;;;20.05;16.63;;;;;;;3.58;66.43;100881.22;4935386;29;20040;-64
2022/03/23 03:18:34;;;;;;;24.38;15.27;;;;;;;3.55;66.63;100885.59;4935390;29;20511;-64
2022/03/23 03:21:03;;;;;;;24.70;16.13;;;;;;;3.49;66.15;100889.06;4934571;29;20040;-66
2022/03/23 03:23:30;;;;;;;24.05;15.75;;;;;;;3.45;65.87;100882.13;4935351;29;20070;-64
2022/03/23 03:25:56;;;;;;;27.83;14.90;;;;;;;3.43;64.82;100889.09;4935133;29;20512;-66
2022/03/23 03:28:22;;;;;;;22.77;15.30;;;;;;;3.53;64.63;100884.72;4935251;29;20072;-64
2022/03/23 03:30:47;;;;;;;21.38;13.35;;;;;;;3.59;64.60;100893.41;4941902;29;20031;-66
2022/03/23 03:33:13;;;;;;;19.95;12.90;;;;;;;3.62;63.66;100885.56;4953429;29;20042;-66
2022/03/23 03:35:38;;;;;;;19.52;13.35;;;;;;;3.66;64.29;100889.00;4954640;29;20042;-67
2022/03/23 03:38:03;;;;;;;21.60;14.50;;;;;;;3.69;63.83;100891.59;4954069;29;20033;-67
2022/03/23 03:40:29;;;;;;;26.38;15.07;;;;;;;3.69;63.25;100893.34;4953636;29;20047;-67
2022/03/23 03:42:54;;;;;;;22.10;14.95;;;;;;;3.74;63.97;100894.19;4953328;29;20043;-66
2022/03/23 03:45:20;;;;;;;20.80;13.75;;;;;;;3.73;63.81;100893.34;4953773;29;20046;-66
2022/03/23 03:47:45;;;;;;;20.60;14.57;;;;;;;3.73;63.69;100898.56;4953868;29;20028;-66
2022/03/23 03:50:11;;;;;;;19.67;14.15;;;;;;;3.75;62.88;100895.97;4954275;29;20048;-66
2022/03/23 03:52:36;;;;;;;21.92;14.05;;;;;;;3.76;62.85;100885.50;4949821;28;20035;-66
2022/03/23 03:55:02;;;;;;;21.58;14.80;;;;;;;3.81;62.63;100895.91;4953839;28;20076;-65
2022/03/23 03:57:27;;;;;;;22.20;15.35;;;;;;;3.79;62.65;100895.06;4953800;28;20174;-66
2022/03/23 03:59:53;;;;;;;25.17;14.15;;;;;;;3.77;63.35;100905.50;4954053;28;20122;-65
2022/03/23 04:02:19;;;;;;;20.00;14.77;;;;;;;3.76;63.29;100902.88;4953448;28;20073;-65
2022/03/23 04:04:44;;;;;;;29.45;16.00;;;;;;;3.74;63.13;100899.41;4953410;28;20039;-65
2022/03/23 04:07:09;;;;;;;19.60;13.93;;;;;;;3.72;63.24;100901.19;4954658;28;20039;-65
2022/03/23 04:09:35;;;;;;;26.33;16.60;;;;;;;3.69;63.53;100909.00;4953903;28;20451;-67
2022/03/23 04:12:00;;;;;;;17.73;13.05;;;;;;;3.66;63.23;100913.34;4952853;28;20063;-66
2022/03/23 04:14:26;;;;;;;24.67;15.30;;;;;;;3.63;63.58;100908.16;4953069;28;20499;-66
2022/03/23 04:16:51;;;;;;;24.23;15.90;;;;;;;3.63;63.83;100902.06;4953104;28;20059;-66
2022/03/23 04:19:16;;;;;;;23.23;15.40;;;;;;;3.63;63.84;100902.06;4935838;28;20042;-66
2022/03/23 04:21:41;;;;;;;16.40;14.10;;;;;;;3.60;63.94;100905.56;4952629;28;20123;-63
2022/03/23 04:24:07;;;;;;;20.02;14.48;;;;;;;3.60;63.61;100910.78;4953787;28;20086;-66
2022/03/23 04:26:32;;;;;;;21.30;12.85;;;;;;;3.59;64.21;100911.66;4953074;28;20082;-65
2022/03/23 04:28:58;;;;;;;18.17;13.93;;;;;;;3.56;64.29;100913.38;4955972;28;20034;-65
2022/03/23 04:31:23;;;;;;;23.40;14.57;;;;;;;3.54;64.34;100908.16;4953071;28;20043;-65
2022/03/23 04:33:48;;;;;;;24.15;16.35;;;;;;;3.50;64.62;100916.88;4953845;28;20037;-65
2022/03/23 04:36:14;;;;;;;19.48;13.90;;;;;;;3.46;64.71;100916.88;4953483;28;20055;-66
2022/03/23 04:38:39;;;;;;;21.20;13.95;;;;;;;3.41;65.19;100916.88;4953272;28;20045;-66
2022/03/23 04:41:05;;;;;;;19.90;13.23;;;;;;;3.40;65.33;100912.56;4952112;28;20460;-66
2022/03/23 04:43:31;;;;;;;19.73;11.68;;;;;;;3.41;65.77;100919.50;4952925;28;20043;-66
2022/03/23 04:45:57;;;;;;;21.00;15.80;;;;;;;3.36;65.68;100910.81;4952770;28;20035;-66
2022/03/23 04:48:22;;;;;;;18.90;13.88;;;;;;;3.32;65.49;100916.91;4953090;28;20090;-67
2022/03/23 04:50:48;;;;;;;20.10;14.02;;;;;;;3.30;65.89;100918.63;4952192;29;20043;-66
2022/03/23 04:53:15;;;;;;;22.95;13.55;;;;;;;3.27;65.95;100916.03;4935410;29;20036;-66
2022/03/23 04:55:40;;;;;;;21.73;15.25;;;;;;;3.28;66.02;100921.25;4952909;29;20035;-66
2022/03/23 04:58:05;;;;;;;16.35;12.77;;;;;;;3.27;65.81;100922.09;4952795;28;20042;-67
2022/03/23 05:00:31;;;;;;;22.33;13.85;;;;;;;3.27;65.76;100923.84;4952530;28;22281;-66
2022/03/23 05:02:56;;;;;;;20.88;13.63;;;;;;;3.32;65.27;100916.91;4952642;28;20119;-66
2022/03/23 05:05:21;;;;;;;20.45;15.02;;;;;;;3.26;66.01;100925.59;4952357;28;20059;-66
2022/03/23 05:07:47;;;;;;;22.58;15.38;;;;;;;3.14;66.74;100931.69;4953034;28;20070;-66
2022/03/23 05:10:13;;;;;;;27.42;14.95;;;;;;;3.16;66.66;100927.34;4952546;28;20034;-66
2022/03/23 05:12:41;;;;;;;21.65;14.82;;;;;;;3.18;66.77;100925.59;4954645;28;20106;-66
2022/03/23 05:15:08;;;;;;;22.88;14.93;;;;;;;3.17;66.90;100929.06;4952888;28;20035;-65
2022/03/23 05:17:35;;;;;;;22.23;14.07;;;;;;;3.14;66.57;100933.41;4943616;28;20119;-65
2022/03/23 05:20:01;;;;;;;22.70;16.42;;;;;;;3.14;67.15;100930.81;4951660;28;20130;-65
2022/03/23 05:22:27;;;;;;;19.50;11.90;;;;;;;3.15;66.60;100928.22;4935659;28;20042;-66
2022/03/23 05:24:52;;;;;;;19.27;13.13;;;;;;;3.21;66.44;100929.94;4952497;28;20035;-66
2022/03/23 05:27:18;;;;;;;22.25;15.30;;;;;;;3.23;66.52;100931.69;4954578;28;20126;-66
2022/03/23 05:29:43;;;;;;;22.88;15.18;;;;;;;3.23;66.93;100934.28;4953642;28;20032;-66
2022/03/23 05:32:16;;;;;;;20.58;13.40;;;;;;;3.22;66.77;100937.78;4953010;28;20384;-67
2022/03/23 05:34:48;;;;;;;22.63;14.80;;;;;;;3.26;66.67;100942.97;4933449;29;20032;-69
2022/03/23 05:37:14;;;;;;;25.05;15.23;;;;;;;3.26;66.67;100933.41;4951865;29;20043;-66
2022/03/23 05:39:40;;;;;;;22.30;14.27;;;;;;;3.25;66.87;100941.22;4952557;29;20543;-66
2022/03/23 05:42:07;;;;;;;23.95;14.93;;;;;;;3.22;67.33;100952.53;4951664;28;20046;-66
2022/03/23 05:44:33;;;;;;;23.33;14.50;;;;;;;3.21;67.45;100942.97;4952744;29;20845;-65
2022/03/23 05:46:59;;;;;;;18.80;12.73;;;;;;;3.27;67.30;100942.09;4953216;29;20039;-67
2022/03/23 05:49:24;;;;;;;26.13;15.90;;;;;;;3.34;66.79;100944.69;4935264;29;20136;-65
2022/03/23 05:51:50;;;;;;;23.85;14.63;;;;;;;3.28;66.50;100933.44;4934497;29;20035;-66
2022/03/23 05:54:16;;;;;;;22.55;13.18;;;;;;;3.21;67.83;100940.38;4951960;29;20050;-66
2022/03/23 05:56:41;;;;;;;22.08;14.73;;;;;;;3.25;67.64;100943.81;4935035;29;20031;-66
2022/03/23 05:59:07;;;;;;;23.75;16.38;;;;;;;3.22;67.91;100945.59;4951710;29;20542;-64
2022/03/23 06:01:32;;;;;;;18.27;13.13;;;;;;;3.21;68.16;100946.44;4933826;29;20559;-66
2022/03/23 06:03:58;;;;;;;20.58;13.50;;;;;;;3.27;68.13;100948.16;4951752;29;20043;-66
2022/03/23 06:06:23;;;;;;;25.42;13.85;;;;;;;3.33;67.98;100949.94;4934730;29;20054;-67
2022/03/23 06:08:49;;;;;;;22.92;14.90;;;;;;;3.39;67.55;100958.59;4951794;29;20117;-66
2022/03/23 06:11:14;;;;;;;22.33;13.70;;;;;;;3.47;67.30;100949.88;4950794;29;20034;-67
2022/03/23 06:13:39;;;;;;;43.22;16.77;;;;;;;3.56;66.97;100948.13;4951731;29;20863;-65
2022/03/23 06:16:06;;;;;;;21.52;13.05;;;;;;;3.62;66.89;100952.50;4951064;29;20475;-66
2022/03/23 06:18:32;;;;;;;25.83;17.10;;;;;;;3.68;66.66;100949.84;4951635;29;20047;-66
2022/03/23 06:20:57;;;;;;;29.60;15.13;;;;;;;3.73;66.79;100955.06;4951023;29;20042;-66
2022/03/23 06:23:23;;;;;;;27.05;14.23;;;;;;;3.79;66.94;100952.44;4950685;29;20071;-66
2022/03/23 06:25:48;;;;;;;20.73;13.63;;;;;;;3.90;66.53;100955.88;4951072;29;20041;-66
2022/03/23 06:28:13;;;;;;;27.10;14.13;;;;;;;4.04;66.15;100950.63;4955571;28;20637;-66
2022/03/23 06:30:39;;;;;;;23.75;15.50;;;;;;;4.24;65.66;100954.03;4957733;28;20041;-66
2022/03/23 06:33:04;;;;;;;24.08;14.02;;;;;;;4.47;65.13;100956.50;4957074;29;20035;-66
2022/03/23 06:35:30;;;;;;;22.48;13.38;;;;;;;4.68;64.42;100958.16;4957766;28;20035;-67
2022/03/23 06:37:56;;;;;;;22.60;14.25;;;;;;;4.87;63.57;100955.41;4957479;29;20039;-66
2022/03/23 06:40:21;;;;;;;23.20;14.27;;;;;;;5.04;63.13;100952.66;4957217;28;20059;-66
2022/03/23 06:42:48;;;;;;;23.80;14.32;;;;;;;5.17;62.92;100949.09;4957370;28;20101;-67
2022/03/23 06:45:13;;;;;;;25.33;15.15;;;;;;;5.36;63.21;100958.47;4957763;28;20055;-67
2022/03/23 06:47:39;;;;;;;24.20;13.80;;;;;;;5.63;62.61;100956.47;4959047;29;20488;-66
2022/03/23 06:50:05;;;;;;;27.02;13.35;;;;;;;5.97;61.35;100964.03;4957242;28;20035;-67
2022/03/23 06:52:31;;;;;;;23.65;14.93;;;;;;;6.24;60.20;100963.69;4957067;29;20043;-65
2022/03/23 06:54:56;;;;;;;44.80;26.77;;;;;;;6.48;59.45;100963.41;4957592;29;20119;-67
2022/03/23 06:57:21;;;;;;;32.70;15.85;;;;;;;6.72;59.14;100967.41;4957006;28;20079;-66
2022/03/23 06:59:47;;;;;;;24.10;15.02;;;;;;;6.90;58.95;100972.41;4957258;28;20075;-66
2022/03/23 07:02:13;;;;;;;20.60;14.52;;;;;;;7.15;57.53;100969.41;4956829;29;20134;-66
2022/03/23 07:04:39;;;;;;;22.75;13.50;;;;;;;7.40;57.46;100968.09;4957481;29;20046;-66
2022/03/23 07:07:04;;;;;;;36.75;16.55;;;;;;;7.65;57.63;100965.88;4956797;28;20039;-66
2022/03/23 07:09:33;;;;;;;35.92;16.70;;;;;;;7.83;57.09;100964.72;4957369;28;20138;-66
2022/03/23 07:12:04;;;;;;;23.88;14.57;;;;;;;8.05;56.14;100970.41;4956451;28;20039;-66
2022/03/23 07:14:31;;;;;;;24.33;14.90;;;;;;;8.34;55.12;100971.56;4957111;28;20406;-67
2022/03/23 07:16:56;;;;;;;22.58;14.07;;;;;;;8.59;53.19;100975.44;4956901;28;20431;-66
2022/03/23 07:19:22;;;;;;;32.95;15.07;;;;;;;8.87;54.12;100972.19;4940166;28;20035;-65
2022/03/23 07:21:48;;;;;;;25.02;13.45;;;;;;;9.21;53.34;100976.66;4956054;28;20129;-68
2022/03/23 07:24:14;;;;;;;28.98;14.65;;;;;;;9.48;51.63;100967.19;4955541;28;20066;-67
2022/03/23 07:26:39;;;;;;;32.25;14.90;;;;;;;9.77;52.81;100970.81;4957376;28;20479;-67
2022/03/23 07:29:05;;;;;;;33.60;16.83;;;;;;;10.01;52.16;100969.28;4956930;28;20062;-66
2022/03/23 07:31:30;;;;;;;30.58;14.55;;;;;;;10.25;51.09;100976.50;4956874;28;20035;-67
2022/03/23 07:33:57;;;;;;;17.38;12.65;;;;;;;10.66;50.13;100974.44;4957349;28;20668;-66
2022/03/23 07:36:24;;;;;;;21.48;13.70;;;;;;;11.01;49.29;100977.75;4957708;28;20067;-67
2022/03/23 07:38:49;;;;;;;15.63;11.85;;;;;;;11.29;48.75;100972.44;4955615;28;20507;-65
2022/03/23 07:41:15;;;;;;;19.95;12.88;;;;;;;11.59;47.52;100973.19;4953558;29;20035;-66
2022/03/23 07:43:40;;;;;;;22.00;12.10;;;;;;;11.95;46.70;100974.63;4954598;29;20042;-67
2022/03/23 07:46:05;;;;;;;17.25;12.35;;;;;;;12.37;45.56;100977.47;4954403;29;20491;-66
2022/03/23 07:48:31;;;;;;;22.42;12.95;;;;;;;12.89;45.86;100974.59;4936766;29;20110;-66
2022/03/23 07:50:56;;;;;;;22.58;12.00;;;;;;;13.35;45.20;100967.47;4953378;28;20443;-66
2022/03/23 07:53:22;;;;;;;19.92;12.20;;;;;;;13.89;43.89;100981.06;4953600;28;20047;-67
2022/03/23 07:55:47;;;;;;;21.55;12.13;;;;;;;14.71;42.37;100979.09;4953819;28;20118;-67
2022/03/23 07:58:13;;;;;;;19.63;12.73;;;;;;;15.31;40.87;100978.00;4953520;28;20047;-67
2022/03/23 08:00:38;;;;;;;18.52;13.35;;;;;;;15.60;38.76;100973.88;4953754;28;20043;-67
2022/03/23 08:03:06;;;;;;;26.25;14.10;;;;;;;16.01;39.08;100985.06;4935985;28;20082;-66
2022/03/23 08:05:32;;;;;;;26.77;14.15;;;;;;;16.39;38.91;100976.84;4953704;28;20503;-66
2022/03/23 08:07:58;;;;;;;30.05;14.05;;;;;;;16.67;38.23;100983.31;4954013;28;20093;-66
2022/03/23 08:10:23;;;;;;;33.25;14.52;;;;;;;17.15;36.50;100984.16;4953658;28;20545;-67
2022/03/23 08:12:51;;;;;;;29.23;13.93;;;;;;;17.70;36.04;100985.44;4952042;28;20035;-67
2022/03/23 08:15:16;;;;;;;26.05;14.05;;;;;;;18.14;36.44;100985.41;4953570;28;20039;-67
2022/03/23 08:17:42;;;;;;;20.08;11.63;;;;;;;18.53;35.34;100989.19;4953896;28;20070;-67
2022/03/23 08:22:53;;;;;;;22.45;12.63;;;;;;;19.38;32.86;100983.75;4952976;28;20089;-68
2022/03/23 08:25:18;;;;;;;43.45;16.33;;;;;;;19.67;31.50;100981.78;4953365;28;20047;-67
2022/03/23 08:27:44;;;;;;;47.13;16.52;;;;;;;20.04;30.43;100985.50;4953567;28;20114;-67
2022/03/23 08:30:10;;;;;;;33.95;17.10;;;;;;;20.27;28.68;100983.00;4953542;28;20087;-67
2022/03/23 08:32:35;;;;;;;43.58;17.00;;;;;;;20.69;28.97;100983.63;4953499;28;20066;-66
2022/03/23 08:35:00;;;;;;;32.90;18.40;;;;;;;21.37;26.47;100984.84;4953769;28;20726;-67
2022/03/23 08:37:26;;;;;;;29.73;16.45;;;;;;;21.60;25.98;100980.44;4953544;28;20049;-67
2022/03/23 08:39:52;;;;;;;23.38;14.88;;;;;;;21.76;24.89;100986.34;4953995;28;20039;-66
2022/03/23 08:42:17;;;;;;;24.40;17.10;;;;;;;21.62;24.58;100989.25;4953291;28;20043;-66
2022/03/23 08:44:45;;;;;;;34.90;17.02;;;;;;;21.98;23.95;100979.28;4954035;28;20046;-66
2022/03/23 08:47:10;;;;;;;21.88;16.98;;;;;;;22.04;23.91;100978.84;4954869;28;20039;-66
2022/03/23 08:49:36;;;;;;;28.92;18.05;;;;;;;22.45;23.87;100978.28;4952736;28;20578;-67
2022/03/23 08:52:01;;;;;;;30.23;16.63;;;;;;;22.79;23.84;100978.25;4952727;28;20027;-66
2022/03/23 08:54:27;;;;;;;49.25;18.85;;;;;;;23.20;23.31;100979.34;4952957;28;20043;-66
2022/03/23 08:56:53;;;;;;;31.55;18.38;;;;;;;23.29;21.92;100978.59;4953801;29;20089;-67
2022/03/23 08:59:18;;;;;;;30.95;17.92;;;;;;;23.13;21.88;100973.63;4953248;29;20035;-67
2022/03/23 09:01:44;;;;;;;27.40;16.73;;;;;;;23.38;21.53;100981.50;4952261;28;20123;-67
2022/03/23 09:04:10;;;;;;;24.05;16.23;;;;;;;23.88;21.73;100979.91;4953763;29;20046;-66
2022/03/23 09:06:35;;;;;;;24.15;16.95;;;;;;;24.07;20.77;100975.59;4953518;29;20043;-66
2022/03/23 09:09:01;;;;;;;26.20;16.73;;;;;;;23.99;20.28;100971.75;4935683;29;20031;-67
2022/03/23 09:11:27;;;;;;;51.92;17.35;;;;;;;24.22;21.11;100976.97;4951932;28;20114;-67
2022/03/23 09:13:53;;;;;;;28.48;16.92;;;;;;;24.29;21.46;100982.66;4952405;28;20035;-67
2022/03/23 09:16:18;;;;;;;24.80;18.95;;;;;;;24.33;20.97;100979.56;4953048;28;20062;-67
2022/03/23 09:18:43;;;;;;;30.15;22.20;;;;;;;24.27;20.92;100976.56;4952286;28;20654;-67
2022/03/23 09:21:09;;;;;;;34.22;20.10;;;;;;;24.39;20.61;100981.75;4951914;28;20035;-67
2022/03/23 09:23:36;;;;;;;28.20;20.88;;;;;;;24.62;20.87;100978.88;4952314;28;20035;-67
2022/03/23 09:26:02;;;;;;;35.55;20.45;;;;;;;24.92;20.78;100977.09;4951881;28;20407;-65
2022/03/23 09:28:28;;;;;;;31.20;20.60;;;;;;;25.20;20.25;100975.44;4952129;28;20043;-66
2022/03/23 09:30:53;;;;;;;28.73;17.60;;;;;;;25.60;20.00;100977.16;4951919;28;20459;-67
2022/03/23 09:33:19;;;;;;;30.40;20.33;;;;;;;25.89;18.95;100978.00;4951047;28;20559;-67
2022/03/23 09:35:44;;;;;;;40.00;18.77;;;;;;;25.72;19.05;100978.69;4951799;28;20140;-66
2022/03/23 09:38:11;;;;;;;37.88;21.63;;;;;;;25.42;18.91;100982.41;4951992;28;20436;-67
2022/03/23 09:40:37;;;;;;;42.90;19.90;;;;;;;25.38;19.67;100976.44;4934049;28;20042;-66
2022/03/23 09:43:05;;;;;;;26.42;16.90;;;;;;;25.86;19.11;100972.84;4951105;28;20035;-65
2022/03/23 09:48:00;;;;;;;24.77;17.10;;;;;;;26.08;18.44;100968.09;4951583;29;20034;-67
2022/03/23 09:50:28;;;;;;;23.67;16.92;;;;;;;26.12;18.62;100975.78;4951226;28;20411;-67
2022/03/23 09:52:54;;;;;;;40.65;19.83;;;;;;;26.20;18.87;100972.34;4951462;28;20402;-67
2022/03/23 09:55:20;;;;;;;30.63;19.90;;;;;;;26.33;18.10;100970.13;4951172;29;20118;-65
2022/03/23 09:57:45;;;;;;;22.90;19.02;;;;;;;26.17;17.94;100969.94;4951630;29;20415;-67
2022/03/23 10:00:13;;;;;;;38.20;16.15;;;;;;;26.19;17.22;100976.06;4951600;28;20042;-67
2022/03/23 10:02:39;;;;;;;21.85;17.45;;;;;;;26.40;17.46;100969.56;4950278;28;20042;-67
2022/03/23 10:05:25;;;;;;;22.60;17.07;;;;;;;26.82;17.22;100978.03;4951304;29;20126;-67
2022/03/23 10:08:12;;;;;;;101.70;26.70;;;;;;;26.65;18.00;100971.56;4951146;29;20121;-65
2022/03/23 10:11:15;;;;;;;24.75;17.55;;;;;;;26.55;17.33;100977.03;4951409;29;20050;-66
2022/03/23 10:14:08;;;;;;;23.85;16.48;;;;;;;26.57;17.11;100978.75;4951437;29;20182;-67
2022/03/23 10:17:07;;;;;;;27.33;16.60;;;;;;;26.80;17.16;100973.78;4950868;29;20051;-67
2022/03/23 10:19:33;;;;;;;37.75;20.15;;;;;;;26.46;17.75;100977.06;4933581;29;20039;-67
2022/03/23 10:22:09;;;;;;;21.73;17.20;;;;;;;26.79;17.18;100983.75;4950752;29;20039;-67
2022/03/23 10:24:35;;;;;;;18.52;15.15;;;;;;;26.56;17.53;100980.63;4951327;29;20459;-68
2022/03/23 10:27:14;;;;;;;33.88;19.50;;;;;;;26.54;17.16;100979.91;4951188;29;20043;-67
2022/03/23 10:29:42;;;;;;;21.83;17.52;;;;;;;26.81;17.12;100981.75;4951283;29;20035;-68
2022/03/23 10:32:09;;;;;;;18.52;15.85;;;;;;;27.01;16.77;100974.34;4950259;29;20035;-67
2022/03/23 10:34:47;;;;;;;42.25;18.77;;;;;;;27.10;16.90;100981.56;4950993;29;20430;-67
2022/03/23 10:37:14;;;;;;;38.35;18.42;;;;;;;26.83;16.94;100978.88;4951083;29;20102;-67
2022/03/23 10:39:40;;;;;;;52.42;21.15;;;;;;;27.05;17.07;100973.06;4951066;29;20114;-67
2022/03/23 10:42:17;;;;;;;24.27;17.95;;;;;;;26.97;17.04;100975.66;4950247;29;20119;-65
2022/03/23 10:44:47;;;;;;;23.25;18.15;;;;;;;26.41;17.70;100971.25;4932015;29;20035;-67
2022/03/23 10:47:28;;;;;;;30.83;16.85;;;;;;;26.06;18.05;100972.81;4951534;29;20404;-66
2022/03/23 10:49:53;;;;;;;27.52;17.70;;;;;;;25.45;18.66;100972.19;4934639;29;20043;-66
2022/03/23 10:52:20;;;;;;;43.05;21.48;;;;;;;24.61;19.92;100969.94;4951235;29;20032;-67
2022/03/23 10:54:52;;;;;;;27.92;18.50;;;;;;;23.99;20.54;100979.81;4951200;29;20130;-67
2022/03/23 10:57:18;;;;;;;32.38;17.55;;;;;;;23.44;20.53;100978.31;4951820;29;20043;-68
2022/03/23 10:59:46;;;;;;;20.40;16.85;;;;;;;23.10;21.04;100978.41;4935429;29;20057;-66
2022/03/23 11:02:13;;;;;;;31.17;18.20;;;;;;;22.86;21.61;100976.72;4950698;29;20043;-65
2022/03/23 11:04:53;;;;;;;26.75;18.67;;;;;;;22.14;21.81;100976.28;4950459;29;20526;-68
2022/03/23 11:07:35;;;;;;;24.27;16.95;;;;;;;21.83;22.41;100978.66;4950484;28;20446;-67
2022/03/23 11:15:47;;;;;;;26.90;18.20;;;;;;;21.08;23.19;100966.44;4954469;29;20038;-67
2022/03/23 11:18:16;;;;;;;36.95;21.08;;;;;;;20.97;24.71;100969.06;4954367;29;20035;-66
2022/03/23 11:20:46;;;;;;;31.73;21.35;;;;;;;20.95;25.20;100971.84;4954088;29;20067;-66
2022/03/23 11:23:17;;;;;;;32.08;18.60;;;;;;;20.89;23.94;100969.59;4936365;29;20032;-67
2022/03/23 11:25:43;;;;;;;31.73;19.17;;;;;;;20.59;24.08;100970.03;4935432;29;20550;-67
2022/03/23 11:28:10;;;;;;;30.20;18.77;;;;;;;20.38;24.52;100970.59;4954544;29;20043;-67
2022/03/23 11:30:37;;;;;;;38.45;19.45;;;;;;;20.36;25.19;100964.47;4954211;29;20035;-65
2022/03/23 11:33:04;;;;;;;46.08;22.75;;;;;;;20.22;26.10;100966.41;4953990;29;20458;-65
2022/03/23 11:35:31;;;;;;;33.45;18.60;;;;;;;20.26;25.53;100968.78;4953944;29;20047;-65